Singapore Star — 3EJX5 — position and weather

sailwx.info

Track history (hours):
 
Tides and Currents Weather Stations Pressure Air Temp Water Temp Dewpoint Dewpoint Depression Visibility Wind Speed Wind Dir Waves Ship Positions

Singapore Star

Last reported at 2018-Jan-11 19:50 UTC. Time now 2018-Jan-18 17:30 UTC.
Position S 01°32' W 048°45'.

Length 183 m; draft 11.8 m.

Type: Ship. MMSI: 372639000.

Date/timePositionNaut miles runAvg speedWind from/ knotsBaromVisibWave heightAir tempDewpointWater temp
2018-Jan-11 19:50S 01°32' W 048°45'0 0.1
2018-Jan-11 19:30S 01°32' W 048°45'1 2.3
2018-Jan-11 18:58S 01°32' W 048°46'0 0.2
2018-Jan-11 18:28S 01°32' W 048°46'0 0.2
2018-Jan-11 17:58S 01°32' W 048°46'0 0.1
2018-Jan-11 17:28S 01°32' W 048°46'0 0.0
2018-Jan-11 16:40S 01°32' W 048°46'0 0.0
2018-Jan-11 16:28S 01°32' W 048°46'0 0.0
2018-Jan-11 15:58S 01°32' W 048°46'0 0.0
2018-Jan-11 15:28S 01°32' W 048°46'0 0.0
2018-Jan-11 14:58S 01°32' W 048°46'0 0.0
2018-Jan-11 14:28S 01°32' W 048°46'0 0.1
2018-Jan-11 13:58S 01°32' W 048°46'0 0.1
2018-Jan-11 13:31S 01°32' W 048°46'2 4.7
2018-Jan-11 13:00S 01°30' W 048°45'511.2
2018-Jan-11 12:31S 01°25' W 048°43'612.5
2018-Jan-11 12:00S 01°19' W 048°39'612.6
2018-Jan-11 11:30S 01°14' W 048°35'611.6
2018-Jan-11 11:01S 01°10' W 048°32'611.8
2018-Jan-11 10:31S 01°05' W 048°28'713.3
2018-Jan-11 10:00S 00°59' W 048°25'713.4
2018-Jan-11 09:29S 00°53' W 048°21'2810.6
2018-Jan-11 06:52S 00°33' W 048°03'513.8
2018-Jan-11 06:29S 00°29' W 047°59'713.2
2018-Jan-11 05:58S 00°24' W 047°54'511.6
2018-Jan-11 05:30S 00°24' W 047°49'2 4.5
2018-Jan-11 04:58S 00°25' W 047°46'0 0.2
2018-Jan-11 04:28S 00°25' W 047°46'0 0.0
2018-Jan-11 03:58S 00°25' W 047°46'0 0.2
2018-Jan-11 03:28S 00°25' W 047°46'0 0.1
2018-Jan-11 02:58S 00°24' W 047°46'0 0.1
2018-Jan-11 02:28S 00°24' W 047°46'0 0.1
2018-Jan-11 01:58S 00°24' W 047°46'0 0.0
2018-Jan-11 01:28S 00°24' W 047°46'0 0.0
2018-Jan-11 00:58S 00°24' W 047°46'0 0.1
2018-Jan-11 00:28S 00°24' W 047°46'0 0.1
2018-Jan-10 23:58S 00°24' W 047°46'0 0.1
2018-Jan-10 23:28S 00°24' W 047°46'0 0.0
2018-Jan-10 22:58S 00°24' W 047°46'0 0.0
2018-Jan-10 22:28S 00°24' W 047°46'0 0.0
2018-Jan-10 21:58S 00°24' W 047°46'0 0.1
2018-Jan-10 21:28S 00°24' W 047°46'0 0.7
2018-Jan-10 21:00S 00°24' W 047°46'4 7.9
2018-Jan-10 20:30S 00°20' W 047°48'5 8.9
2018-Jan-10 20:00S 00°16' W 047°48'  
Track history (hours):
 
Tides and Currents Weather Stations Pressure Air Temp Water Temp Dewpoint Dewpoint Depression Visibility Wind Speed Wind Dir Waves Ship Positions

Singapore Star

Last reported at 2018-Jan-11 19:50 UTC. Time now 2018-Jan-18 17:30 UTC.
Position S 01°32' W 048°45'.

Length 183 m; draft 11.8 m.

Type: Ship. MMSI: 372639000.

Date/timePositionNaut miles runAvg speedWind from/ knotsBaromVisibWave heightAir tempDewpointWater temp
2018-Jan-11 19:50S 01°32' W 048°45'0 0.1
2018-Jan-11 19:30S 01°32' W 048°45'1 2.3
2018-Jan-11 18:58S 01°32' W 048°46'0 0.2
2018-Jan-11 18:28S 01°32' W 048°46'0 0.2
2018-Jan-11 17:58S 01°32' W 048°46'0 0.1
2018-Jan-11 17:28S 01°32' W 048°46'0 0.0
2018-Jan-11 16:40S 01°32' W 048°46'0 0.0
2018-Jan-11 16:28S 01°32' W 048°46'0 0.0
2018-Jan-11 15:58S 01°32' W 048°46'0 0.0
2018-Jan-11 15:28S 01°32' W 048°46'0 0.0
2018-Jan-11 14:58S 01°32' W 048°46'0 0.0
2018-Jan-11 14:28S 01°32' W 048°46'0 0.1
2018-Jan-11 13:58S 01°32' W 048°46'0 0.1
2018-Jan-11 13:31S 01°32' W 048°46'2 4.7
2018-Jan-11 13:00S 01°30' W 048°45'511.2
2018-Jan-11 12:31S 01°25' W 048°43'612.5
2018-Jan-11 12:00S 01°19' W 048°39'612.6
2018-Jan-11 11:30S 01°14' W 048°35'611.6
2018-Jan-11 11:01S 01°10' W 048°32'611.8
2018-Jan-11 10:31S 01°05' W 048°28'713.3
2018-Jan-11 10:00S 00°59' W 048°25'713.4
2018-Jan-11 09:29S 00°53' W 048°21'2810.6
2018-Jan-11 06:52S 00°33' W 048°03'513.8
2018-Jan-11 06:29S 00°29' W 047°59'713.2
2018-Jan-11 05:58S 00°24' W 047°54'511.6
2018-Jan-11 05:30S 00°24' W 047°49'2 4.5
2018-Jan-11 04:58S 00°25' W 047°46'0 0.2
2018-Jan-11 04:28S 00°25' W 047°46'0 0.0
2018-Jan-11 03:58S 00°25' W 047°46'0 0.2
2018-Jan-11 03:28S 00°25' W 047°46'0 0.1
2018-Jan-11 02:58S 00°24' W 047°46'0 0.1
2018-Jan-11 02:28S 00°24' W 047°46'0 0.1
2018-Jan-11 01:58S 00°24' W 047°46'0 0.0
2018-Jan-11 01:28S 00°24' W 047°46'0 0.0
2018-Jan-11 00:58S 00°24' W 047°46'0 0.1
2018-Jan-11 00:28S 00°24' W 047°46'0 0.1
2018-Jan-10 23:58S 00°24' W 047°46'0 0.1
2018-Jan-10 23:28S 00°24' W 047°46'0 0.0
2018-Jan-10 22:58S 00°24' W 047°46'0 0.0
2018-Jan-10 22:28S 00°24' W 047°46'0 0.0
2018-Jan-10 21:58S 00°24' W 047°46'0 0.1
2018-Jan-10 21:28S 00°24' W 047°46'0 0.7
2018-Jan-10 21:00S 00°24' W 047°46'4 7.9
2018-Jan-10 20:30S 00°20' W 047°48'5 8.9
2018-Jan-10 20:00S 00°16' W 047°48'  

Dump ship's entire track history